sensor_id;sensor_type;location;lat;lon;timestamp;pressure;altitude;pressure_sealevel;temperature;humidity
49827;BME280;35715;51.570;6.036;2023-08-17T00:01:07;101807.03;;;21.04;70.39
49827;BME280;35715;51.570;6.036;2023-08-17T00:03:32;101812.16;;;21.01;70.47
49827;BME280;35715;51.570;6.036;2023-08-17T00:05:57;101817.34;;;21.00;70.60
49827;BME280;35715;51.570;6.036;2023-08-17T00:08:23;101813.72;;;20.96;71.71
49827;BME280;35715;51.570;6.036;2023-08-17T00:10:48;101813.78;;;20.98;71.24
49827;BME280;35715;51.570;6.036;2023-08-17T00:13:13;101807.88;;;21.03;71.26
49827;BME280;35715;51.570;6.036;2023-08-17T00:15:39;101801.78;;;21.04;71.04
49827;BME280;35715;51.570;6.036;2023-08-17T00:18:05;101800.06;;;21.05;70.98
49827;BME280;35715;51.570;6.036;2023-08-17T00:20:30;101799.88;;;21.00;71.64
49827;BME280;35715;51.570;6.036;2023-08-17T00:22:55;101798.66;;;20.92;72.34
49827;BME280;35715;51.570;6.036;2023-08-17T00:25:21;101798.28;;;20.83;72.64
49827;BME280;35715;51.570;6.036;2023-08-17T00:27:46;101795.41;;;20.77;72.12
49827;BME280;35715;51.570;6.036;2023-08-17T00:30:12;101797.03;;;20.73;73.00
49827;BME280;35715;51.570;6.036;2023-08-17T00:32:37;101794.22;;;20.68;72.70
49827;BME280;35715;51.570;6.036;2023-08-17T00:35:03;101797.38;;;20.61;73.14
49827;BME280;35715;51.570;6.036;2023-08-17T00:37:29;101801.56;;;20.56;72.88
49827;BME280;35715;51.570;6.036;2023-08-17T00:39:54;101791.94;;;20.56;72.94
49827;BME280;35715;51.570;6.036;2023-08-17T00:42:19;101791.44;;;20.44;72.17
49827;BME280;35715;51.570;6.036;2023-08-17T00:44:45;101796.47;;;20.39;72.55
49827;BME280;35715;51.570;6.036;2023-08-17T00:47:10;101792.00;;;20.37;73.32
49827;BME280;35715;51.570;6.036;2023-08-17T00:49:36;101791.94;;;20.35;72.79
49827;BME280;35715;51.570;6.036;2023-08-17T00:52:02;101790.91;;;20.32;72.05
49827;BME280;35715;51.570;6.036;2023-08-17T00:54:29;101784.44;;;20.24;73.31
49827;BME280;35715;51.570;6.036;2023-08-17T00:56:55;101772.66;;;20.14;72.93
49827;BME280;35715;51.570;6.036;2023-08-17T00:59:22;101770.72;;;20.10;73.20
49827;BME280;35715;51.570;6.036;2023-08-17T01:01:48;101779.34;;;20.07;73.52
49827;BME280;35715;51.570;6.036;2023-08-17T01:04:14;101780.81;;;20.00;73.29
49827;BME280;35715;51.570;6.036;2023-08-17T01:06:39;101771.03;;;19.96;74.07
49827;BME280;35715;51.570;6.036;2023-08-17T01:09:05;101774.25;;;19.91;74.54
49827;BME280;35715;51.570;6.036;2023-08-17T01:11:38;101781.16;;;19.89;73.96
49827;BME280;35715;51.570;6.036;2023-08-17T01:14:30;101771.44;;;19.86;73.96
49827;BME280;35715;51.570;6.036;2023-08-17T01:17:05;101771.28;;;19.83;74.46
49827;BME280;35715;51.570;6.036;2023-08-17T01:19:32;101780.97;;;19.84;74.54
49827;BME280;35715;51.570;6.036;2023-08-17T01:22:03;101780.88;;;19.82;74.50
49827;BME280;35715;51.570;6.036;2023-08-17T01:24:30;101775.66;;;19.82;74.78
49827;BME280;35715;51.570;6.036;2023-08-17T01:26:55;101783.50;;;19.82;74.82
49827;BME280;35715;51.570;6.036;2023-08-17T01:29:21;101780.81;;;19.81;74.66
49827;BME280;35715;51.570;6.036;2023-08-17T01:31:54;101779.88;;;19.79;75.00
49827;BME280;35715;51.570;6.036;2023-08-17T01:34:25;101773.47;;;19.74;75.23
49827;BME280;35715;51.570;6.036;2023-08-17T01:36:53;101775.94;;;19.71;75.51
49827;BME280;35715;51.570;6.036;2023-08-17T01:39:25;101779.25;;;19.66;75.04
49827;BME280;35715;51.570;6.036;2023-08-17T01:41:52;101783.31;;;19.60;75.88
49827;BME280;35715;51.570;6.036;2023-08-17T01:44:20;101770.56;;;19.48;75.99
49827;BME280;35715;51.570;6.036;2023-08-17T01:46:46;101777.25;;;19.41;76.32
49827;BME280;35715;51.570;6.036;2023-08-17T01:49:11;101783.00;;;19.34;76.07
49827;BME280;35715;51.570;6.036;2023-08-17T01:51:36;101793.47;;;19.34;76.22
49827;BME280;35715;51.570;6.036;2023-08-17T01:54:02;101789.00;;;19.31;75.44
49827;BME280;35715;51.570;6.036;2023-08-17T01:56:27;101794.22;;;19.31;75.53
49827;BME280;35715;51.570;6.036;2023-08-17T01:58:53;101800.31;;;19.30;75.57
49827;BME280;35715;51.570;6.036;2023-08-17T02:01:18;101799.91;;;19.23;75.53
49827;BME280;35715;51.570;6.036;2023-08-17T02:03:43;101806.00;;;19.22;76.06
49827;BME280;35715;51.570;6.036;2023-08-17T02:06:09;101805.16;;;19.23;76.28
49827;BME280;35715;51.570;6.036;2023-08-17T02:08:37;101804.41;;;19.25;77.13
49827;BME280;35715;51.570;6.036;2023-08-17T02:11:02;101811.66;;;19.31;77.07
49827;BME280;35715;51.570;6.036;2023-08-17T02:13:27;101815.16;;;19.31;76.92
49827;BME280;35715;51.570;6.036;2023-08-17T02:15:53;101810.84;;;19.32;76.48
49827;BME280;35715;51.570;6.036;2023-08-17T02:18:18;101808.09;;;19.29;76.44
49827;BME280;35715;51.570;6.036;2023-08-17T02:20:43;101803.44;;;19.23;76.76
49827;BME280;35715;51.570;6.036;2023-08-17T02:23:09;101799.09;;;19.24;77.29
49827;BME280;35715;51.570;6.036;2023-08-17T02:25:38;101806.13;;;19.25;77.40
49827;BME280;35715;51.570;6.036;2023-08-17T02:28:04;101797.16;;;19.20;77.40
49827;BME280;35715;51.570;6.036;2023-08-17T02:30:29;101795.22;;;19.15;77.14
49827;BME280;35715;51.570;6.036;2023-08-17T02:32:55;101801.19;;;19.13;77.12
49827;BME280;35715;51.570;6.036;2023-08-17T02:35:20;101793.22;;;19.10;77.16
49827;BME280;35715;51.570;6.036;2023-08-17T02:37:46;101784.34;;;19.06;77.40
49827;BME280;35715;51.570;6.036;2023-08-17T02:40:11;101785.13;;;19.05;78.19
49827;BME280;35715;51.570;6.036;2023-08-17T02:42:36;101778.88;;;19.02;78.49
49827;BME280;35715;51.570;6.036;2023-08-17T02:45:02;101783.28;;;19.03;78.28
49827;BME280;35715;51.570;6.036;2023-08-17T02:47:28;101777.88;;;19.00;77.72
49827;BME280;35715;51.570;6.036;2023-08-17T02:49:53;101786.81;;;19.03;78.47
49827;BME280;35715;51.570;6.036;2023-08-17T02:52:18;101781.72;;;19.06;78.63
49827;BME280;35715;51.570;6.036;2023-08-17T02:54:44;101784.56;;;19.11;78.57
49827;BME280;35715;51.570;6.036;2023-08-17T02:57:09;101777.66;;;19.13;78.21
49827;BME280;35715;51.570;6.036;2023-08-17T02:59:34;101774.16;;;19.12;79.21
49827;BME280;35715;51.570;6.036;2023-08-17T03:02:00;101772.44;;;19.13;78.77
49827;BME280;35715;51.570;6.036;2023-08-17T03:04:25;101775.84;;;19.12;78.65
49827;BME280;35715;51.570;6.036;2023-08-17T03:06:51;101775.13;;;19.14;78.59
49827;BME280;35715;51.570;6.036;2023-08-17T03:09:16;101777.81;;;19.16;78.72
49827;BME280;35715;51.570;6.036;2023-08-17T03:11:41;101780.28;;;19.13;78.54
49827;BME280;35715;51.570;6.036;2023-08-17T03:14:07;101770.84;;;19.17;78.46
49827;BME280;35715;51.570;6.036;2023-08-17T03:16:32;101776.28;;;19.21;78.80
49827;BME280;35715;51.570;6.036;2023-08-17T03:18:58;101776.38;;;19.23;78.58
49827;BME280;35715;51.570;6.036;2023-08-17T03:21:23;101778.25;;;19.25;78.47
49827;BME280;35715;51.570;6.036;2023-08-17T03:23:49;101770.91;;;19.18;78.40
49827;BME280;35715;51.570;6.036;2023-08-17T03:26:15;101769.22;;;19.19;78.79
49827;BME280;35715;51.570;6.036;2023-08-17T03:28:40;101762.03;;;19.14;78.98
49827;BME280;35715;51.570;6.036;2023-08-17T03:31:09;101763.84;;;19.15;79.25
49827;BME280;35715;51.570;6.036;2023-08-17T03:33:35;101756.72;;;19.13;79.33
49827;BME280;35715;51.570;6.036;2023-08-17T03:36:04;101761.97;;;19.13;79.77
49827;BME280;35715;51.570;6.036;2023-08-17T03:38:29;101758.03;;;19.03;79.91
49827;BME280;35715;51.570;6.036;2023-08-17T03:40:55;101758.78;;;19.01;79.74
49827;BME280;35715;51.570;6.036;2023-08-17T03:43:20;101753.59;;;19.02;79.37
49827;BME280;35715;51.570;6.036;2023-08-17T03:45:45;101752.88;;;19.05;79.89
49827;BME280;35715;51.570;6.036;2023-08-17T03:48:11;101754.56;;;19.04;79.60
49827;BME280;35715;51.570;6.036;2023-08-17T03:50:37;101754.50;;;19.03;79.51
49827;BME280;35715;51.570;6.036;2023-08-17T03:53:03;101759.34;;;18.95;79.91
49827;BME280;35715;51.570;6.036;2023-08-17T03:55:28;101765.03;;;18.86;80.03
49827;BME280;35715;51.570;6.036;2023-08-17T03:57:54;101759.81;;;18.86;80.33
49827;BME280;35715;51.570;6.036;2023-08-17T04:00:19;101761.59;;;18.87;80.68
49827;BME280;35715;51.570;6.036;2023-08-17T04:02:44;101758.03;;;18.85;81.00
49827;BME280;35715;51.570;6.036;2023-08-17T04:05:10;101760.16;;;18.76;81.05
49827;BME280;35715;51.570;6.036;2023-08-17T04:07:36;101766.00;;;18.70;81.14
49827;BME280;35715;51.570;6.036;2023-08-17T04:10:03;101769.41;;;18.69;81.27
49827;BME280;35715;51.570;6.036;2023-08-17T04:12:28;101778.00;;;18.67;81.37
49827;BME280;35715;51.570;6.036;2023-08-17T04:14:53;101778.13;;;18.70;81.51
49827;BME280;35715;51.570;6.036;2023-08-17T04:17:19;101779.78;;;18.68;81.58
49827;BME280;35715;51.570;6.036;2023-08-17T04:19:46;101776.22;;;18.66;81.69
49827;BME280;35715;51.570;6.036;2023-08-17T04:22:11;101777.31;;;18.71;81.94
49827;BME280;35715;51.570;6.036;2023-08-17T04:24:37;101780.94;;;18.73;82.31
49827;BME280;35715;51.570;6.036;2023-08-17T04:27:03;101779.22;;;18.73;82.02
49827;BME280;35715;51.570;6.036;2023-08-17T04:29:30;101784.81;;;18.81;81.83
49827;BME280;35715;51.570;6.036;2023-08-17T04:31:55;101778.78;;;18.82;82.00
49827;BME280;35715;51.570;6.036;2023-08-17T04:34:21;101786.94;;;18.88;82.00
49827;BME280;35715;51.570;6.036;2023-08-17T04:36:46;101783.22;;;18.85;81.43
49827;BME280;35715;51.570;6.036;2023-08-17T04:39:11;101783.34;;;18.86;81.45
49827;BME280;35715;51.570;6.036;2023-08-17T04:41:37;101791.25;;;18.88;81.16
49827;BME280;35715;51.570;6.036;2023-08-17T04:44:04;101786.25;;;18.92;81.69
49827;BME280;35715;51.570;6.036;2023-08-17T04:46:29;101784.63;;;18.94;81.45
49827;BME280;35715;51.570;6.036;2023-08-17T04:48:57;101780.34;;;18.96;80.96
49827;BME280;35715;51.570;6.036;2023-08-17T04:51:22;101774.59;;;19.04;81.81
49827;BME280;35715;51.570;6.036;2023-08-17T04:53:48;101776.41;;;19.05;81.58
49827;BME280;35715;51.570;6.036;2023-08-17T04:56:14;101776.63;;;19.09;81.31
49827;BME280;35715;51.570;6.036;2023-08-17T04:58:39;101781.22;;;19.15;81.98
49827;BME280;35715;51.570;6.036;2023-08-17T05:01:05;101780.94;;;19.09;80.94
49827;BME280;35715;51.570;6.036;2023-08-17T05:03:30;101780.94;;;19.09;80.80
49827;BME280;35715;51.570;6.036;2023-08-17T05:05:56;101779.38;;;19.12;80.94
49827;BME280;35715;51.570;6.036;2023-08-17T05:08:21;101788.94;;;19.12;80.51
49827;BME280;35715;51.570;6.036;2023-08-17T05:10:47;101783.69;;;19.12;81.01
49827;BME280;35715;51.570;6.036;2023-08-17T05:13:13;101789.00;;;19.13;80.83
49827;BME280;35715;51.570;6.036;2023-08-17T05:15:38;101788.41;;;19.19;80.78
49827;BME280;35715;51.570;6.036;2023-08-17T05:18:04;101789.31;;;19.20;80.49
49827;BME280;35715;51.570;6.036;2023-08-17T05:20:29;101787.59;;;19.20;81.09
49827;BME280;35715;51.570;6.036;2023-08-17T05:22:55;101781.59;;;19.23;80.91
49827;BME280;35715;51.570;6.036;2023-08-17T05:25:20;101788.91;;;19.30;80.48
49827;BME280;35715;51.570;6.036;2023-08-17T05:27:47;101779.38;;;19.30;80.14
49827;BME280;35715;51.570;6.036;2023-08-17T05:30:14;101782.72;;;19.28;80.20
49827;BME280;35715;51.570;6.036;2023-08-17T05:32:40;101781.22;;;19.33;80.56
49827;BME280;35715;51.570;6.036;2023-08-17T05:35:05;101788.31;;;19.36;80.29
49827;BME280;35715;51.570;6.036;2023-08-17T05:37:31;101789.34;;;19.39;80.72
49827;BME280;35715;51.570;6.036;2023-08-17T05:39:56;101791.59;;;19.31;80.15
49827;BME280;35715;51.570;6.036;2023-08-17T05:42:22;101786.94;;;19.24;80.28
49827;BME280;35715;51.570;6.036;2023-08-17T05:44:47;101793.06;;;19.25;81.02
49827;BME280;35715;51.570;6.036;2023-08-17T05:47:13;101788.56;;;19.22;80.78
49827;BME280;35715;51.570;6.036;2023-08-17T05:49:40;101796.34;;;19.21;80.72
49827;BME280;35715;51.570;6.036;2023-08-17T05:52:05;101789.22;;;19.18;80.87
49827;BME280;35715;51.570;6.036;2023-08-17T05:54:31;101803.22;;;19.19;80.96
49827;BME280;35715;51.570;6.036;2023-08-17T05:56:56;101794.69;;;19.23;81.17
49827;BME280;35715;51.570;6.036;2023-08-17T05:59:22;101799.31;;;19.28;81.50
49827;BME280;35715;51.570;6.036;2023-08-17T06:01:47;101806.41;;;19.31;80.71
49827;BME280;35715;51.570;6.036;2023-08-17T06:04:12;101801.19;;;19.31;81.05
49827;BME280;35715;51.570;6.036;2023-08-17T06:06:38;101809.03;;;19.31;81.11
49827;BME280;35715;51.570;6.036;2023-08-17T06:09:03;101809.25;;;19.36;81.20
49827;BME280;35715;51.570;6.036;2023-08-17T06:11:29;101815.84;;;19.27;80.38
49827;BME280;35715;51.570;6.036;2023-08-17T06:13:54;101808.75;;;19.25;81.00
49827;BME280;35715;51.570;6.036;2023-08-17T06:16:20;101812.25;;;19.25;81.33
49827;BME280;35715;51.570;6.036;2023-08-17T06:18:45;101808.09;;;19.29;81.51
49827;BME280;35715;51.570;6.036;2023-08-17T06:21:11;101810.78;;;19.30;80.59
49827;BME280;35715;51.570;6.036;2023-08-17T06:23:36;101810.47;;;19.24;81.01
49827;BME280;35715;51.570;6.036;2023-08-17T06:26:04;101808.00;;;19.27;80.88
49827;BME280;35715;51.570;6.036;2023-08-17T06:28:29;101806.28;;;19.28;81.11
49827;BME280;35715;51.570;6.036;2023-08-17T06:30:55;101807.88;;;19.24;80.60
49827;BME280;35715;51.570;6.036;2023-08-17T06:33:21;101804.41;;;19.25;81.27
49827;BME280;35715;51.570;6.036;2023-08-17T06:35:48;101812.25;;;19.25;81.16
49827;BME280;35715;51.570;6.036;2023-08-17T06:38:14;101816.59;;;19.25;80.44
49827;BME280;35715;51.570;6.036;2023-08-17T06:40:39;101811.66;;;19.31;80.29
49827;BME280;35715;51.570;6.036;2023-08-17T06:43:04;101809.25;;;19.36;80.63
49827;BME280;35715;51.570;6.036;2023-08-17T06:45:33;101808.50;;;19.38;79.76
49827;BME280;35715;51.570;6.036;2023-08-17T06:47:58;101815.50;;;19.39;80.01
49827;BME280;35715;51.570;6.036;2023-08-17T06:50:24;101814.50;;;19.36;80.48
49827;BME280;35715;51.570;6.036;2023-08-17T06:52:50;101811.19;;;19.40;80.72
49827;BME280;35715;51.570;6.036;2023-08-17T06:55:15;101811.63;;;19.49;81.22
49827;BME280;35715;51.570;6.036;2023-08-17T06:57:42;101818.66;;;19.50;80.18
49827;BME280;35715;51.570;6.036;2023-08-17T07:00:08;101813.31;;;19.48;79.34
49827;BME280;35715;51.570;6.036;2023-08-17T07:02:33;101812.97;;;19.41;80.08
49827;BME280;35715;51.570;6.036;2023-08-17T07:05:00;101813.13;;;19.44;79.46
49827;BME280;35715;51.570;6.036;2023-08-17T07:07:25;101810.91;;;19.33;79.48
49827;BME280;35715;51.570;6.036;2023-08-17T07:09:51;101824.22;;;19.38;80.16
49827;BME280;35715;51.570;6.036;2023-08-17T07:12:16;101817.47;;;19.25;80.46
49827;BME280;35715;51.570;6.036;2023-08-17T07:14:41;101813.75;;;19.20;79.84
49827;BME280;35715;51.570;6.036;2023-08-17T07:17:07;101823.31;;;19.20;81.07
49827;BME280;35715;51.570;6.036;2023-08-17T07:19:32;101820.78;;;19.21;80.80
49827;BME280;35715;51.570;6.036;2023-08-17T07:21:57;101819.88;;;19.21;81.00
49827;BME280;35715;51.570;6.036;2023-08-17T07:24:23;101820.94;;;19.24;80.40
49827;BME280;35715;51.570;6.036;2023-08-17T07:26:48;101825.34;;;19.25;80.21
49827;BME280;35715;51.570;6.036;2023-08-17T07:29:13;101820.84;;;19.23;80.65
49827;BME280;35715;51.570;6.036;2023-08-17T07:31:39;101823.25;;;19.18;80.66
49827;BME280;35715;51.570;6.036;2023-08-17T07:34:05;101824.22;;;19.20;81.35
49827;BME280;35715;51.570;6.036;2023-08-17T07:36:31;101811.97;;;19.19;80.74
49827;BME280;35715;51.570;6.036;2023-08-17T07:38:58;101828.03;;;19.27;81.01
49827;BME280;35715;51.570;6.036;2023-08-17T07:41:23;101824.88;;;19.34;80.94
49827;BME280;35715;51.570;6.036;2023-08-17T07:43:48;101820.00;;;19.42;80.42
49827;BME280;35715;51.570;6.036;2023-08-17T07:46:16;101821.97;;;19.46;80.25
49827;BME280;35715;51.570;6.036;2023-08-17T07:48:42;101818.50;;;19.47;79.97
49827;BME280;35715;51.570;6.036;2023-08-17T07:51:07;101823.72;;;19.47;80.40
49827;BME280;35715;51.570;6.036;2023-08-17T07:53:33;101829.28;;;19.53;80.55
49827;BME280;35715;51.570;6.036;2023-08-17T07:55:58;101826.66;;;19.53;80.03
49827;BME280;35715;51.570;6.036;2023-08-17T07:58:23;101831.06;;;19.54;79.39
49827;BME280;35715;51.570;6.036;2023-08-17T08:00:49;101828.97;;;19.47;80.01
49827;BME280;35715;51.570;6.036;2023-08-17T08:03:14;101838.69;;;19.49;80.03
49827;BME280;35715;51.570;6.036;2023-08-17T08:05:40;101829.56;;;19.59;79.71
49827;BME280;35715;51.570;6.036;2023-08-17T08:08:05;101834.81;;;19.59;79.75
49827;BME280;35715;51.570;6.036;2023-08-17T08:10:31;101831.47;;;19.63;79.96
49827;BME280;35715;51.570;6.036;2023-08-17T08:12:56;101840.03;;;19.59;80.29
49827;BME280;35715;51.570;6.036;2023-08-17T08:15:22;101837.94;;;19.52;79.93
49827;BME280;35715;51.570;6.036;2023-08-17T08:17:48;101847.34;;;19.48;79.80
49827;BME280;35715;51.570;6.036;2023-08-17T08:20:15;101848.41;;;19.52;80.61
49827;BME280;35715;51.570;6.036;2023-08-17T08:22:41;101846.31;;;19.63;80.15
49827;BME280;35715;51.570;6.036;2023-08-17T08:25:07;101846.78;;;19.74;78.96
49827;BME280;35715;51.570;6.036;2023-08-17T08:27:32;101851.06;;;19.72;80.31
49827;BME280;35715;51.570;6.036;2023-08-17T08:29:57;101848.84;;;19.79;79.89
49827;BME280;35715;51.570;6.036;2023-08-17T08:32:23;101855.03;;;19.81;80.60
49827;BME280;35715;51.570;6.036;2023-08-17T08:34:48;101851.66;;;19.84;80.32
49827;BME280;35715;51.570;6.036;2023-08-17T08:37:14;101849.06;;;19.84;80.25
49827;BME280;35715;51.570;6.036;2023-08-17T08:39:53;101843.28;;;19.73;80.30
49827;BME280;35715;51.570;6.036;2023-08-17T08:42:19;101837.91;;;19.70;80.17
49827;BME280;35715;51.570;6.036;2023-08-17T08:44:46;101838.13;;;19.75;80.43
49827;BME280;35715;51.570;6.036;2023-08-17T08:47:13;101843.34;;;19.75;80.50
49827;BME280;35715;51.570;6.036;2023-08-17T08:49:40;101841.81;;;19.78;80.74
49827;BME280;35715;51.570;6.036;2023-08-17T08:52:13;101841.19;;;19.66;80.48
49827;BME280;35715;51.570;6.036;2023-08-17T08:54:44;101846.97;;;19.59;80.66
49827;BME280;35715;51.570;6.036;2023-08-17T08:57:13;101848.84;;;19.61;81.10
49827;BME280;35715;51.570;6.036;2023-08-17T08:59:41;101840.03;;;19.59;81.25
49827;BME280;35715;51.570;6.036;2023-08-17T09:02:15;101850.22;;;19.53;81.31
49827;BME280;35715;51.570;6.036;2023-08-17T09:04:44;101841.66;;;19.57;81.97
49827;BME280;35715;51.570;6.036;2023-08-17T09:07:11;101842.16;;;19.68;81.86
49827;BME280;35715;51.570;6.036;2023-08-17T09:09:37;101830.72;;;19.84;81.82
49827;BME280;35715;51.570;6.036;2023-08-17T09:12:04;101825.00;;;19.93;81.48
49827;BME280;35715;51.570;6.036;2023-08-17T09:14:29;101811.13;;;19.95;81.88
49827;BME280;35715;51.570;6.036;2023-08-17T09:16:55;101821.78;;;19.79;81.87
49827;BME280;35715;51.570;6.036;2023-08-17T09:19:24;101820.09;;;19.81;81.69
49827;BME280;35715;51.570;6.036;2023-08-17T09:21:50;101830.78;;;19.85;82.04
49827;BME280;35715;51.570;6.036;2023-08-17T09:24:16;101823.13;;;19.90;81.34
49827;BME280;35715;51.570;6.036;2023-08-17T09:26:41;101826.50;;;19.88;81.76
49827;BME280;35715;51.570;6.036;2023-08-17T09:29:20;101823.53;;;19.80;82.09
49827;BME280;35715;51.570;6.036;2023-08-17T09:31:48;101818.31;;;19.80;82.62
49827;BME280;35715;51.570;6.036;2023-08-17T09:34:14;101812.25;;;19.81;82.86
49827;BME280;35715;51.570;6.036;2023-08-17T09:36:40;101807.66;;;19.77;82.27
49827;BME280;35715;51.570;6.036;2023-08-17T09:39:05;101809.56;;;19.79;82.58
49827;BME280;35715;51.570;6.036;2023-08-17T09:41:38;101815.00;;;19.84;83.11
49827;BME280;35715;51.570;6.036;2023-08-17T09:44:03;101815.97;;;19.86;82.81
49827;BME280;35715;51.570;6.036;2023-08-17T09:46:29;101805.06;;;19.96;83.40
49827;BME280;35715;51.570;6.036;2023-08-17T09:48:55;101807.75;;;19.98;82.56
49827;BME280;35715;51.570;6.036;2023-08-17T09:51:20;101810.59;;;20.02;82.36
49827;BME280;35715;51.570;6.036;2023-08-17T09:53:51;101803.84;;;20.08;82.19
49827;BME280;35715;51.570;6.036;2023-08-17T09:56:21;101797.81;;;20.10;81.84
49827;BME280;35715;51.570;6.036;2023-08-17T09:58:47;101804.59;;;20.05;82.11
49827;BME280;35715;51.570;6.036;2023-08-17T10:01:12;101803.97;;;20.11;81.31
49827;BME280;35715;51.570;6.036;2023-08-17T10:03:42;101803.06;;;20.10;82.24
49827;BME280;35715;51.570;6.036;2023-08-17T10:06:10;101809.28;;;20.12;82.29
49827;BME280;35715;51.570;6.036;2023-08-17T10:08:42;101807.41;;;20.10;82.00
49827;BME280;35715;51.570;6.036;2023-08-17T10:11:09;101807.00;;;20.20;82.17
49827;BME280;35715;51.570;6.036;2023-08-17T10:13:38;101797.72;;;20.28;82.32
49827;BME280;35715;51.570;6.036;2023-08-17T10:21:36;101796.88;;;20.08;82.29
49827;BME280;35715;51.570;6.036;2023-08-17T10:24:03;101799.34;;;20.05;82.36
49827;BME280;35715;51.570;6.036;2023-08-17T10:26:29;101797.69;;;20.07;82.83
49827;BME280;35715;51.570;6.036;2023-08-17T10:28:55;101798.53;;;20.06;82.81
49827;BME280;35715;51.570;6.036;2023-08-17T10:31:24;101797.75;;;20.09;83.00
49827;BME280;35715;51.570;6.036;2023-08-17T10:33:49;101796.38;;;20.17;82.49
49827;BME280;35715;51.570;6.036;2023-08-17T10:36:15;101782.91;;;20.29;82.75
49827;BME280;35715;51.570;6.036;2023-08-17T10:38:41;101781.69;;;20.42;82.15
49827;BME280;35715;51.570;6.036;2023-08-17T10:41:08;101779.28;;;20.46;81.61
49827;BME280;35715;51.570;6.036;2023-08-17T10:43:35;101782.91;;;20.50;82.34
49827;BME280;35715;51.570;6.036;2023-08-17T10:46:17;101788.75;;;20.64;81.78
49827;BME280;35715;51.570;6.036;2023-08-17T10:48:43;101787.19;;;20.67;80.97
49827;BME280;35715;51.570;6.036;2023-08-17T10:51:09;101772.75;;;20.79;80.99
49827;BME280;35715;51.570;6.036;2023-08-17T10:53:38;101774.69;;;20.83;80.92
49827;BME280;35715;51.570;6.036;2023-08-17T10:56:10;101780.13;;;20.87;80.08
49827;BME280;35715;51.570;6.036;2023-08-17T10:58:36;101785.31;;;20.86;79.90
49827;BME280;35715;51.570;6.036;2023-08-17T11:01:01;101776.72;;;20.90;80.17
49827;BME280;35715;51.570;6.036;2023-08-17T11:03:26;101790.09;;;20.96;79.71
49827;BME280;35715;51.570;6.036;2023-08-17T11:05:54;101786.84;;;21.02;79.25
49827;BME280;35715;51.570;6.036;2023-08-17T11:11:11;101778.78;;;20.97;79.66
49827;BME280;35715;51.570;6.036;2023-08-17T11:13:38;101778.47;;;20.89;79.27
49827;BME280;35715;51.570;6.036;2023-08-17T11:16:05;101787.34;;;20.93;79.54
49827;BME280;35715;51.570;6.036;2023-08-17T11:18:32;101793.59;;;20.97;79.83
49827;BME280;35715;51.570;6.036;2023-08-17T11:20:57;101795.34;;;20.96;79.45
49827;BME280;35715;51.570;6.036;2023-08-17T11:23:23;101795.59;;;21.02;79.69
49827;BME280;35715;51.570;6.036;2023-08-17T11:25:49;101793.03;;;21.04;78.87
49827;BME280;35715;51.570;6.036;2023-08-17T11:28:16;101796.53;;;21.04;79.50
49827;BME280;35715;51.570;6.036;2023-08-17T11:30:42;101800.53;;;20.95;79.44
49827;BME280;35715;51.570;6.036;2023-08-17T11:33:09;101802.03;;;20.88;80.51
49827;BME280;35715;51.570;6.036;2023-08-17T11:35:35;101797.16;;;20.97;80.53
49827;BME280;35715;51.570;6.036;2023-08-17T11:38:02;101800.31;;;21.11;79.04
49827;BME280;35715;51.570;6.036;2023-08-17T11:40:28;101806.38;;;21.10;79.50
49827;BME280;35715;51.570;6.036;2023-08-17T11:42:54;101800.31;;;21.11;79.21
49827;BME280;35715;51.570;6.036;2023-08-17T11:45:19;101798.63;;;21.13;78.64
49827;BME280;35715;51.570;6.036;2023-08-17T11:47:47;101801.72;;;21.25;78.79
49827;BME280;35715;51.570;6.036;2023-08-17T11:50:14;101801.22;;;21.34;77.98
49827;BME280;35715;51.570;6.036;2023-08-17T11:52:40;101802.25;;;21.38;79.07
49827;BME280;35715;51.570;6.036;2023-08-17T11:55:07;101809.31;;;21.40;78.59
49827;BME280;35715;51.570;6.036;2023-08-17T11:57:35;101802.75;;;21.50;77.86
49827;BME280;35715;51.570;6.036;2023-08-17T12:00:05;101792.69;;;21.62;77.40
49827;BME280;35715;51.570;6.036;2023-08-17T12:02:37;101789.53;;;21.71;77.64
49827;BME280;35715;51.570;6.036;2023-08-17T12:05:07;101789.63;;;21.50;77.95
49827;BME280;35715;51.570;6.036;2023-08-17T12:07:32;101786.13;;;21.51;77.48
49827;BME280;35715;51.570;6.036;2023-08-17T12:09:58;101795.03;;;21.55;78.24
49827;BME280;35715;51.570;6.036;2023-08-17T12:12:23;101795.75;;;21.51;77.15
49827;BME280;35715;51.570;6.036;2023-08-17T12:14:49;101793.94;;;21.50;78.07
49827;BME280;35715;51.570;6.036;2023-08-17T12:17:19;101792.16;;;21.49;77.67
49827;BME280;35715;51.570;6.036;2023-08-17T12:19:45;101788.31;;;21.40;77.78
49827;BME280;35715;51.570;6.036;2023-08-17T12:22:13;101783.19;;;21.43;77.96
49827;BME280;35715;51.570;6.036;2023-08-17T12:24:39;101789.22;;;21.41;77.66
49827;BME280;35715;51.570;6.036;2023-08-17T12:27:05;101788.44;;;21.43;78.53
49827;BME280;35715;51.570;6.036;2023-08-17T12:29:31;101795.38;;;21.41;77.81
49827;BME280;35715;51.570;6.036;2023-08-17T12:32:03;101788.50;;;21.45;77.69
49827;BME280;35715;51.570;6.036;2023-08-17T12:34:29;101785.03;;;21.46;77.86
49827;BME280;35715;51.570;6.036;2023-08-17T12:36:54;101791.22;;;21.48;77.87
49827;BME280;35715;51.570;6.036;2023-08-17T12:39:19;101797.56;;;21.52;78.03
49827;BME280;35715;51.570;6.036;2023-08-17T12:41:45;101788.00;;;21.54;78.35
49827;BME280;35715;51.570;6.036;2023-08-17T12:44:10;101790.66;;;21.55;77.76
49827;BME280;35715;51.570;6.036;2023-08-17T12:46:39;101794.00;;;21.51;78.08
49827;BME280;35715;51.570;6.036;2023-08-17T12:49:05;101796.63;;;21.51;77.86
49827;BME280;35715;51.570;6.036;2023-08-17T12:51:30;101790.72;;;21.57;78.08
49827;BME280;35715;51.570;6.036;2023-08-17T12:53:56;101786.41;;;21.59;77.56